createdAt,value
2023-05-08T00:03:10.467Z,5.97
2023-05-08T00:06:28.492Z,5.95
2023-05-08T00:09:45.599Z,5.87
2023-05-08T00:13:02.357Z,5.79
2023-05-08T00:16:19.019Z,5.74
2023-05-08T00:19:35.509Z,5.66
2023-05-08T00:22:51.775Z,5.64
2023-05-08T00:26:08.397Z,5.64
2023-05-08T00:29:24.594Z,5.62
2023-05-08T00:32:41.065Z,5.58
2023-05-08T00:35:58.439Z,5.58
2023-05-08T00:39:15.765Z,5.60
2023-05-08T00:42:32.151Z,5.58
2023-05-08T00:45:50.272Z,5.52
2023-05-08T00:49:06.954Z,5.56
2023-05-08T00:52:24.260Z,5.54
2023-05-08T00:55:43.769Z,5.51
2023-05-08T00:59:00.867Z,5.48
2023-05-08T01:02:19.919Z,5.48
2023-05-08T01:05:37.766Z,5.48
2023-05-08T01:08:54.751Z,5.49
2023-05-08T01:12:20.555Z,5.54
2023-05-08T01:15:44.042Z,5.53
2023-05-08T01:19:07.416Z,5.55
2023-05-08T01:22:32.573Z,5.56
2023-05-08T01:26:42.265Z,5.56
2023-05-08T01:30:31.137Z,5.56
2023-05-08T01:33:56.409Z,5.58
2023-05-08T01:37:17.154Z,5.57
2023-05-08T01:40:41.053Z,5.58
2023-05-08T01:44:03.392Z,5.57
2023-05-08T01:47:22.646Z,5.47
2023-05-08T01:50:47.116Z,5.48
2023-05-08T01:54:09.355Z,5.46
2023-05-08T01:57:27.720Z,5.47
2023-05-08T02:00:46.316Z,5.51
2023-05-08T02:04:04.596Z,5.54
2023-05-08T02:07:21.377Z,5.57
2023-05-08T02:10:38.800Z,5.58
2023-05-08T02:13:57.968Z,5.57
2023-05-08T02:17:16.932Z,5.53
2023-05-08T02:20:34.691Z,5.55
2023-05-08T02:23:51.788Z,5.56
2023-05-08T02:27:09.011Z,5.57
2023-05-08T02:30:27.888Z,5.54
2023-05-08T02:33:44.924Z,5.53
2023-05-08T02:37:02.749Z,5.43
2023-05-08T02:40:24.005Z,5.43
2023-05-08T02:43:40.624Z,5.46
2023-05-08T02:47:07.008Z,5.37
2023-05-08T02:50:29.633Z,5.31
2023-05-08T02:53:51.463Z,5.27
2023-05-08T02:57:14.956Z,5.22
2023-05-08T03:00:36.018Z,5.25
2023-05-08T03:03:58.667Z,5.20
2023-05-08T03:07:16.152Z,5.16
2023-05-08T03:10:38.055Z,5.16
2023-05-08T03:13:56.350Z,5.12
2023-05-08T03:17:16.649Z,5.09
2023-05-08T03:20:36.894Z,5.08
2023-05-08T03:23:55.993Z,5.07
2023-05-08T03:27:14.296Z,5.05
2023-05-08T03:30:31.905Z,5.00
2023-05-08T03:33:51.642Z,5.01
2023-05-08T03:37:08.174Z,5.02
2023-05-08T03:40:24.995Z,5.02
2023-05-08T03:43:41.935Z,5.00
2023-05-08T03:47:00.980Z,4.98
2023-05-08T03:50:18.928Z,4.99
2023-05-08T03:53:36.707Z,4.93
2023-05-08T03:56:53.521Z,4.93
2023-05-08T04:00:16.992Z,4.86
2023-05-08T04:03:42.254Z,4.83
2023-05-08T04:07:02.638Z,4.79
2023-05-08T04:10:26.833Z,4.85
2023-05-08T04:13:49.454Z,4.76
2023-05-08T04:17:11.829Z,4.72
2023-05-08T04:20:31.996Z,4.73
2023-05-08T04:23:49.886Z,4.74
2023-05-08T04:27:08.189Z,4.66
2023-05-08T04:30:25.748Z,4.71
2023-05-08T04:33:44.134Z,4.73
2023-05-08T04:37:02.466Z,4.73
2023-05-08T04:40:20.924Z,4.68
2023-05-08T04:43:37.644Z,4.73
2023-05-08T04:46:55.232Z,4.72
2023-05-08T04:50:12.832Z,4.77
2023-05-08T04:53:30.566Z,4.76
2023-05-08T04:56:46.803Z,4.81
2023-05-08T05:00:06.065Z,4.86
2023-05-08T05:03:24.144Z,4.85
2023-05-08T05:06:40.482Z,4.87
2023-05-08T05:09:57.017Z,4.93
2023-05-08T05:13:13.557Z,4.94
2023-05-08T05:16:30.062Z,4.95
2023-05-08T05:19:46.431Z,5.02
2023-05-08T05:23:02.842Z,5.04
2023-05-08T05:26:19.638Z,5.06
2023-05-08T05:29:36.220Z,5.07
2023-05-08T05:32:53.662Z,5.02
2023-05-08T05:36:19.773Z,5.07
2023-05-08T05:39:36.853Z,5.08
2023-05-08T05:42:57.897Z,5.15
2023-05-08T05:46:18.894Z,5.17
2023-05-08T05:49:35.348Z,5.24
2023-05-08T05:52:52.053Z,5.22
2023-05-08T05:56:08.550Z,5.25
2023-05-08T05:59:24.791Z,5.22
2023-05-08T06:02:42.539Z,5.24
2023-05-08T06:06:02.132Z,5.31
2023-05-08T06:09:23.155Z,5.37
2023-05-08T06:12:45.854Z,5.40
2023-05-08T06:16:04.446Z,5.42
2023-05-08T06:19:22.046Z,5.49
2023-05-08T06:22:38.653Z,5.51
2023-05-08T06:25:58.797Z,5.48
2023-05-08T06:29:15.089Z,5.46
2023-05-08T06:32:33.129Z,5.64
2023-05-08T06:35:50.055Z,5.69
2023-05-08T06:39:06.514Z,5.75
2023-05-08T06:42:22.780Z,5.87
2023-05-08T06:45:39.278Z,5.96
2023-05-08T06:48:55.574Z,6.29
2023-05-08T06:52:13.001Z,6.55
2023-05-08T06:55:29.712Z,6.74
2023-05-08T06:58:56.544Z,7.11
2023-05-08T07:02:04.540Z,7.16
2023-05-08T07:05:21.327Z,7.18
2023-05-08T07:08:37.806Z,7.35
2023-05-08T07:11:54.238Z,7.57
2023-05-08T07:15:24.759Z,7.54
2023-05-08T07:18:27.719Z,7.76
2023-05-08T07:21:45.014Z,8.02
2023-05-08T07:25:03.061Z,8.21
2023-05-08T07:28:19.660Z,8.30
2023-05-08T07:31:36.148Z,8.63
2023-05-08T07:34:52.724Z,8.90
2023-05-08T07:38:09.028Z,8.96
2023-05-08T07:41:27.449Z,9.22
2023-05-08T07:44:53.644Z,8.65
2023-05-08T07:48:04.498Z,8.44
2023-05-08T07:51:21.340Z,8.03
2023-05-08T07:54:37.857Z,8.00
2023-05-08T07:57:54.696Z,7.86
2023-05-08T08:01:11.267Z,7.79
2023-05-08T08:04:28.574Z,7.72
2023-05-08T08:11:04.170Z,7.83
2023-05-08T08:14:20.586Z,7.85
2023-05-08T08:17:37.592Z,7.76
2023-05-08T08:20:54.248Z,7.80
2023-05-08T08:24:11.066Z,7.70
2023-05-08T08:27:27.605Z,7.74
2023-05-08T08:30:43.929Z,7.82
2023-05-08T08:34:00.634Z,7.76
2023-05-08T08:37:17.184Z,7.85
2023-05-08T08:40:33.947Z,7.87
2023-05-08T08:43:51.774Z,7.86
2023-05-08T08:47:09.578Z,8.02
2023-05-08T08:50:28.155Z,8.03
2023-05-08T08:53:49.157Z,7.99
2023-05-08T08:57:08.950Z,8.00
2023-05-08T09:00:28.999Z,8.18
2023-05-08T09:03:46.772Z,8.36
2023-05-08T09:07:05.747Z,8.41
2023-05-08T09:10:22.599Z,8.42
2023-05-08T09:13:41.860Z,8.38
2023-05-08T09:16:58.580Z,8.37
2023-05-08T09:20:18.991Z,8.42
2023-05-08T09:23:35.348Z,8.42
2023-05-08T09:26:52.344Z,8.44
2023-05-08T09:30:15.320Z,8.38
2023-05-08T09:33:34.497Z,8.39
2023-05-08T09:36:51.410Z,8.38
2023-05-08T09:40:25.608Z,8.40
2023-05-08T09:43:42.979Z,8.36
2023-05-08T09:46:59.752Z,8.41
2023-05-08T09:50:18.633Z,8.41
2023-05-08T09:53:42.367Z,8.28
2023-05-08T09:56:59.418Z,8.39
2023-05-08T10:00:19.853Z,8.36
2023-05-08T10:03:53.575Z,8.30
2023-05-08T10:07:11.046Z,8.17
2023-05-08T10:10:33.576Z,8.51
2023-05-08T10:13:50.911Z,8.72
2023-05-08T10:17:10.837Z,8.76
2023-05-08T10:20:28.784Z,8.82
2023-05-08T10:23:48.136Z,8.78
2023-05-08T10:27:07.566Z,8.68
2023-05-08T10:30:29.870Z,8.61
2023-05-08T10:33:50.935Z,8.62
2023-05-08T10:37:07.597Z,8.67
2023-05-08T10:40:25.293Z,8.83
2023-05-08T10:43:42.724Z,8.95
2023-05-08T10:47:05.884Z,8.94
2023-05-08T10:50:42.768Z,8.90
2023-05-08T10:54:05.528Z,8.95
2023-05-08T10:57:25.327Z,8.91
2023-05-08T11:01:07.298Z,9.05
2023-05-08T11:04:31.829Z,9.41
2023-05-08T11:08:05.306Z,9.54
2023-05-08T11:11:32.982Z,9.41
2023-05-08T11:14:54.370Z,9.48
2023-05-08T11:18:14.724Z,9.53
2023-05-08T11:21:31.613Z,9.55
2023-05-08T11:24:54.753Z,9.56
2023-05-08T11:28:23.884Z,9.42
2023-05-08T11:32:00.867Z,9.44
2023-05-08T11:35:20.930Z,9.53
2023-05-08T11:38:44.391Z,9.58
2023-05-08T11:42:00.825Z,9.64
2023-05-08T11:45:20.332Z,9.58
2023-05-08T11:48:36.875Z,9.67
2023-05-08T11:51:56.235Z,9.81
2023-05-08T11:55:12.494Z,9.84
2023-05-08T11:58:29.048Z,9.81
2023-05-08T12:01:53.499Z,9.76
2023-05-08T12:05:04.148Z,9.79
2023-05-08T12:08:21.997Z,9.79
2023-05-08T12:11:43.355Z,9.77
2023-05-08T12:15:01.801Z,9.78
2023-05-08T12:18:18.143Z,9.80
2023-05-08T12:21:34.762Z,9.86
2023-05-08T12:24:51.940Z,9.90
2023-05-08T12:28:09.726Z,9.99
2023-05-08T12:31:26.213Z,10.10
2023-05-08T12:34:43.433Z,9.98
2023-05-08T12:38:01.207Z,10.11
2023-05-08T12:41:18.454Z,10.20
2023-05-08T12:44:35.516Z,10.19
2023-05-08T12:47:57.305Z,10.13
2023-05-08T12:51:16.557Z,10.21
2023-05-08T12:54:42.114Z,10.21
2023-05-08T12:58:06.793Z,10.18
2023-05-08T13:01:23.426Z,10.19
2023-05-08T13:04:44.006Z,10.26
2023-05-08T13:08:06.498Z,10.28
2023-05-08T13:11:26.677Z,10.29
2023-05-08T13:14:44.296Z,10.34
2023-05-08T13:18:02.798Z,10.38
2023-05-08T13:21:21.282Z,10.31
2023-05-08T13:24:38.000Z,10.26
2023-05-08T13:27:54.502Z,10.30
2023-05-08T13:31:11.186Z,10.22
2023-05-08T13:34:27.791Z,10.17
2023-05-08T13:37:47.636Z,10.15
2023-05-08T13:41:04.019Z,10.12
2023-05-08T13:44:20.577Z,9.96
2023-05-08T13:47:37.893Z,10.08
2023-05-08T13:50:56.291Z,10.06
2023-05-08T13:54:12.776Z,10.16
2023-05-08T13:57:29.869Z,10.26
2023-05-08T14:00:46.591Z,10.38
2023-05-08T14:04:04.194Z,10.47
2023-05-08T14:07:21.750Z,10.50
2023-05-08T14:10:39.757Z,10.43
2023-05-08T14:13:56.205Z,10.48
2023-05-08T14:17:14.423Z,10.47
2023-05-08T14:20:31.136Z,10.40
2023-05-08T14:23:47.498Z,10.30
2023-05-08T14:27:06.933Z,10.27
2023-05-08T14:30:25.632Z,10.27
2023-05-08T14:33:42.848Z,10.35
2023-05-08T14:37:04.602Z,10.39
2023-05-08T14:40:23.337Z,10.48
2023-05-08T14:43:39.741Z,10.59
2023-05-08T14:46:58.186Z,10.53
2023-05-08T14:50:16.397Z,10.48
2023-05-08T14:53:33.176Z,10.44
2023-05-08T14:56:49.777Z,10.38
2023-05-08T15:00:07.118Z,10.34
2023-05-08T15:03:23.701Z,10.28
2023-05-08T15:06:41.314Z,10.26
2023-05-08T15:09:58.104Z,10.21
2023-05-08T15:13:14.775Z,10.26
2023-05-08T15:16:31.241Z,10.25
2023-05-08T15:19:50.987Z,10.27
2023-05-08T15:23:07.252Z,10.31
2023-05-08T15:26:23.635Z,10.33
2023-05-08T15:29:40.584Z,10.40
2023-05-08T15:32:57.011Z,10.39
2023-05-08T15:36:14.477Z,10.40
2023-05-08T15:39:31.055Z,10.40
2023-05-08T15:42:47.478Z,10.44
2023-05-08T15:46:03.826Z,10.40
2023-05-08T15:49:20.287Z,10.39
2023-05-08T15:52:37.726Z,10.37
2023-05-08T15:55:57.481Z,10.35
2023-05-08T15:59:14.103Z,10.29
2023-05-08T16:02:30.777Z,10.27
2023-05-08T16:05:47.426Z,10.19
2023-05-08T16:09:03.806Z,10.16
2023-05-08T16:12:20.711Z,10.18
2023-05-08T16:15:37.111Z,10.18
2023-05-08T16:18:53.611Z,10.15
2023-05-08T16:22:10.316Z,10.15
2023-05-08T16:25:27.191Z,10.09
2023-05-08T16:28:43.596Z,10.09
2023-05-08T16:31:59.927Z,10.06
2023-05-08T16:35:17.984Z,10.01
2023-05-08T16:38:34.866Z,10.02
2023-05-08T16:41:52.394Z,10.01
2023-05-08T16:45:09.177Z,10.01
2023-05-08T16:48:25.469Z,10.07
2023-05-08T16:51:42.448Z,10.16
2023-05-08T16:55:01.472Z,10.19
2023-05-08T16:58:18.602Z,10.21
2023-05-08T17:01:35.248Z,10.23
2023-05-08T17:04:52.428Z,10.22
2023-05-08T17:08:09.344Z,10.21
2023-05-08T17:11:25.757Z,10.21
2023-05-08T17:14:43.538Z,10.18
2023-05-08T17:17:59.901Z,10.16
2023-05-08T17:21:16.850Z,10.13
2023-05-08T17:24:33.368Z,10.10
2023-05-08T17:27:49.797Z,10.04
2023-05-08T17:31:06.184Z,10.02
2023-05-08T17:34:23.593Z,9.99
2023-05-08T17:37:40.044Z,9.87
2023-05-08T17:40:57.508Z,9.90
2023-05-08T17:44:15.364Z,9.88
2023-05-08T17:47:34.728Z,9.87
2023-05-08T17:50:48.899Z,9.77
2023-05-08T17:54:05.188Z,9.72
2023-05-08T17:57:21.472Z,9.70
2023-05-08T18:00:38.587Z,9.68
2023-05-08T18:03:55.250Z,9.65
2023-05-08T18:07:12.398Z,9.61
2023-05-08T18:10:29.727Z,9.62
2023-05-08T18:13:46.105Z,9.61
2023-05-08T18:17:02.528Z,9.60
2023-05-08T18:20:21.884Z,9.60
2023-05-08T18:23:38.526Z,9.57
2023-05-08T18:26:55.752Z,9.57
2023-05-08T18:30:13.997Z,9.59
2023-05-08T18:33:30.842Z,9.59
2023-05-08T18:36:47.200Z,9.56
2023-05-08T18:40:04.006Z,9.53
2023-05-08T18:43:20.221Z,9.48
2023-05-08T18:46:36.721Z,9.41
2023-05-08T18:49:53.331Z,9.37
2023-05-08T18:53:10.740Z,9.35
2023-05-08T18:56:29.682Z,9.32
2023-05-08T18:59:51.019Z,9.29
2023-05-08T19:03:10.448Z,9.27
2023-05-08T19:06:26.936Z,9.22
2023-05-08T19:09:43.979Z,9.18
2023-05-08T19:13:02.106Z,9.15
2023-05-08T19:16:18.725Z,9.09
2023-05-08T19:19:35.690Z,8.98
2023-05-08T19:22:52.186Z,8.88
2023-05-08T19:26:11.174Z,8.83
2023-05-08T19:29:28.966Z,8.83
2023-05-08T19:32:45.450Z,8.76
2023-05-08T19:36:01.728Z,8.68
2023-05-08T19:39:18.601Z,8.61
2023-05-08T19:42:35.224Z,8.52
2023-05-08T19:45:51.965Z,8.51
2023-05-08T19:49:08.380Z,8.50
2023-05-08T19:52:27.646Z,8.45
2023-05-08T19:55:53.592Z,8.40
2023-05-08T19:59:09.876Z,8.37
2023-05-08T20:02:26.333Z,8.31
2023-05-08T20:05:42.796Z,8.22
2023-05-08T20:08:59.461Z,8.16
2023-05-08T20:12:16.243Z,8.10
2023-05-08T20:15:32.435Z,7.99
2023-05-08T20:18:49.584Z,7.94
2023-05-08T20:22:08.584Z,7.87
2023-05-08T20:25:27.007Z,7.85
2023-05-08T20:28:43.402Z,7.82
2023-05-08T20:32:00.626Z,7.74
2023-05-08T20:35:20.875Z,7.68
2023-05-08T20:38:44.385Z,7.62
2023-05-08T20:42:02.300Z,7.63
2023-05-08T20:45:20.963Z,7.52
2023-05-08T20:48:39.992Z,7.53
2023-05-08T20:51:59.868Z,7.51
2023-05-08T20:55:24.205Z,7.48
2023-05-08T20:58:51.935Z,7.43
2023-05-08T21:02:08.679Z,7.37
2023-05-08T21:05:29.300Z,7.25
2023-05-08T21:08:49.380Z,7.18
2023-05-08T21:12:03.613Z,7.10
2023-05-08T21:15:20.183Z,7.09
2023-05-08T21:18:36.535Z,7.03
2023-05-08T21:21:52.898Z,7.01
2023-05-08T21:25:09.371Z,6.97
2023-05-08T21:28:25.889Z,6.92
2023-05-08T21:31:42.874Z,6.86
2023-05-08T21:34:59.378Z,6.80
2023-05-08T21:38:17.150Z,6.73
2023-05-08T21:41:33.869Z,6.73
2023-05-08T21:44:50.530Z,6.73
2023-05-08T21:48:08.512Z,6.70
2023-05-08T21:51:24.777Z,6.64
2023-05-08T21:54:41.113Z,6.58
2023-05-08T21:57:57.794Z,6.52
2023-05-08T22:01:14.246Z,6.48
2023-05-08T22:04:30.601Z,6.46
2023-05-08T22:07:48.363Z,6.46
2023-05-08T22:11:04.521Z,6.40
2023-05-08T22:14:20.791Z,6.34
2023-05-08T22:17:37.588Z,6.34
2023-05-08T22:20:55.972Z,6.33
2023-05-08T22:24:16.193Z,6.31
2023-05-08T22:27:32.487Z,6.25
2023-05-08T22:30:48.798Z,6.23
2023-05-08T22:34:05.324Z,6.22
2023-05-08T22:37:22.903Z,6.19
2023-05-08T22:40:39.179Z,6.13
2023-05-08T22:43:55.714Z,6.12
2023-05-08T22:47:12.852Z,6.08
2023-05-08T22:50:29.552Z,6.01
2023-05-08T22:53:48.760Z,5.95
2023-05-08T22:57:04.991Z,5.91
2023-05-08T23:00:23.908Z,5.85
2023-05-08T23:03:40.327Z,5.82
2023-05-08T23:06:56.945Z,5.83
2023-05-08T23:10:15.095Z,5.74
2023-05-08T23:13:33.972Z,5.67
2023-05-08T23:16:52.453Z,5.69
2023-05-08T23:20:09.166Z,5.60
2023-05-08T23:23:25.405Z,5.59
2023-05-08T23:26:42.357Z,5.47
2023-05-08T23:29:58.864Z,5.46
2023-05-08T23:33:15.270Z,5.43
2023-05-08T23:36:32.907Z,5.46
2023-05-08T23:39:49.420Z,5.28
2023-05-08T23:43:07.074Z,5.27
2023-05-08T23:46:23.401Z,5.22
2023-05-08T23:49:40.394Z,5.24
2023-05-08T23:52:57.127Z,5.20
2023-05-08T23:56:14.180Z,5.15
2023-05-08T23:59:30.497Z,5.15
